Latest Weather Observations for Leigh Creek

IDS60801

Issued at 10:01 am CDT Sunday 17 February 2019 (issued every 10 minutes, with the page automatically refreshed every 10 minutes)

About weather observations | Map of weather stations | Latest weather observations for SA | Other Formats
Station Details ID: 017110 Name: LEIGH CREEK AIRPORT Lat: -30.60 Lon: 138.42 Height: 258.8 m
Data from the previous 72 hours. | See also: Recent months at Leigh Creek
Date/Time
CDT
Temp
°C
App
Temp
°C
Dew
Point
°C
Rel
Hum
%
Delta-T
°C
Wind Press
QNH
hPa
Press
MSL
hPa
Rain since
9am
mm
Dir  Spd
km/h
Gust
km/h
Spd
kts
Gust
kts
17/10:00am 33.2 25.1 0.0 12 16.4 E 32 41 17 22 1012.3 1010.7 0.0
17/09:30am 31.8 24.1 0.0 13 15.6 ESE 30 35 16 19 1012.3 1010.7 0.0
17/09:00am 30.5 23.0 1.0 15 14.6 ESE 30 37 16 20 1012.3 1010.7 0.0
17/08:30am 29.0 21.8 0.7 16 13.8 ESE 28 37 15 20 1012.2 1010.6 0.0
17/08:00am 26.7 22.4 1.2 19 12.3 SSE 13 22 7 12 1012.1 1010.5 0.0
17/07:30am 22.4 19.0 -0.3 22 10.3 S 7 9 4 5 1011.8 1010.2 0.0
17/07:00am 22.0 18.8 -0.7 22 10.2 S 6 9 3 5 1011.8 1010.2 0.0
17/06:30am 20.7 18.5 -1.8 22 9.8 CALM 0 0 0 0 1011.8 1010.2 0.0
17/06:00am 19.7 17.0 -2.6 22 9.5 S 2 6 1 3 1011.7 1010.1 0.0
17/05:30am 21.5 17.6 -1.7 21 10.2 S 9 13 5 7 1011.6 1010.0 0.0
17/05:00am 21.5 17.5 -2.4 20 10.3 S 9 9 5 5 1011.6 1010.0 0.0
17/04:30am 22.0 17.9 -2.7 19 10.7 S 9 11 5 6 1011.5 1009.9 0.0
17/04:00am 22.5 19.0 -3.0 18 11.0 S 6 7 3 4 1011.7 1010.1 0.0
17/03:30am 22.9 19.4 -2.6 18 11.1 S 6 7 3 4 1011.9 1010.3 0.0
17/03:00am 21.8 17.6 -3.5 18 10.7 S 9 11 5 6 1012.0 1010.4 0.0
17/02:30am 22.3 17.3 -3.9 17 11.1 S 13 13 7 7 1012.0 1010.4 0.0
17/02:00am 24.3 20.8 -3.1 16 12.0 S 6 9 3 5 1012.3 1010.7 0.0
17/01:30am 24.7 22.3 -0.4 19 11.6 S 2 6 1 3 1012.8 1011.1 0.0
17/01:00am 24.8 21.1 -2.7 16 12.2 S 7 15 4 8 1013.0 1011.3 0.0
17/12:30am 26.5 22.1 -2.2 15 13.0 S 11 13 6 7 1013.1 1011.4 0.0
17/12:00am 27.4 24.0 -2.4 14 13.5 S 6 9 3 5 1013.3 1011.6 0.0
 
Date/Time
CDT
Temp
°C
App
Temp
°C
Dew
Point
°C
Rel
Hum
%
Delta-T
°C
Wind Press
QNH
hPa
Press
MSL
hPa
Rain since
9am
mm
Dir  Spd
km/h
Gust
km/h
Spd
kts
Gust
kts
16/11:30pm 27.0 23.9 -2.7 14 13.4 S 4 9 2 5 1013.3 1011.6 0.0
16/11:00pm 28.9 25.3 -2.3 13 14.4 S 7 9 4 5 1013.4 1011.7 0.0
16/10:30pm 30.6 27.0 -2.0 12 15.3 S 7 13 4 7 1013.5 1011.9 0.0
16/10:00pm 30.8 27.4 -1.9 12 15.4 S 6 13 3 7 1013.5 1011.9 0.0
16/09:30pm 31.6 27.2 -2.4 11 16.0 S 11 26 6 14 1013.2 1011.5 0.0
16/09:00pm 31.8 28.4 -2.3 11 16.1 S 6 11 3 6 1012.8 1011.1 0.0
16/08:30pm 33.1 28.1 -4.0 9 17.1 S 13 19 7 10 1012.2 1010.6 0.0
16/08:00pm 34.0 27.4 -3.3 9 17.5 SSW 22 32 12 17 1011.9 1010.3 0.0
16/07:30pm 35.2 29.3 -2.4 9 18.1 SSW 19 32 10 17 1011.7 1010.1 0.0
16/07:00pm 35.8 31.5 -2.0 9 18.4 S 11 20 6 11 1011.5 1009.9 0.0
16/06:30pm 36.0 31.5 -3.4 8 18.8 SSE 11 20 6 11 1011.4 1009.8 0.0
16/06:00pm 36.4 33.1 -1.5 9 18.7 S 6 13 3 7 1011.6 1010.0 0.0
16/05:30pm 37.1 32.7 -2.6 8 19.3 S 11 19 6 10 1011.8 1010.2 0.0
16/05:00pm 36.3 32.2 -3.2 8 18.9 NE 9 17 5 9 1012.0 1010.4 0.0
16/04:30pm 37.0 32.6 -2.7 8 19.3 E 11 19 6 10 1012.2 1010.6 0.0
16/04:00pm 35.9 31.0 -3.5 8 18.7 SSE 13 24 7 13 1012.6 1010.9 0.0
16/03:30pm 36.3 32.0 -1.6 9 18.6 S 11 15 6 8 1013.1 1011.4 0.0
16/03:00pm 36.0 32.1 -1.8 9 18.5 SSE 9 19 5 10 1013.6 1012.0 0.0
16/02:30pm 35.1 31.1 -2.5 9 18.0 NE 9 19 5 10 1014.1 1012.5 0.0
16/02:00pm 34.6 31.1 -1.4 10 17.5 SSW 7 15 4 8 1014.4 1012.8 0.0
16/01:30pm 33.7 29.3 -2.1 10 17.1 E 11 19 6 10 1015.1 1013.5 0.0
16/01:00pm 33.7 28.4 -3.5 9 17.4 NE 15 24 8 13 1015.5 1013.9 0.0
16/12:30pm 33.5 29.1 -2.3 10 17.0 SSE 11 26 6 14 1016.0 1014.4 0.0
16/12:00pm 33.2 28.6 -1.2 11 16.6 ESE 13 22 7 12 1016.7 1015.0 0.0
16/11:30am 32.4 27.9 -0.6 12 16.0 SE 13 20 7 11 1017.0 1015.4 0.0
16/11:00am 32.3 27.1 0.4 13 15.8 ESE 17 24 9 13 1017.1 1015.5 0.0
16/10:30am 31.9 25.8 0.1 13 15.6 ESE 22 32 12 17 1017.2 1015.6 0.0
16/10:00am 30.4 24.0 0.9 15 14.5 ESE 24 33 13 18 1017.3 1015.7 0.0
16/09:30am 29.4 22.6 1.0 16 13.9 ESE 26 35 14 19 1017.1 1015.5 0.0
16/09:00am 27.3 20.5 0.9 18 12.7 ESE 26 35 14 19 1017.1 1015.5 0.0
16/08:47am 26.2 19.7 0.0 18 12.3 ESE 24 32 13 17 1017.2 1015.6 0.0
16/08:30am 23.8 20.2 0.8 22 10.8 ESE 9 13 5 7 1017.3 1015.7 0.0
16/08:00am 21.2 17.8 -0.7 23 9.8 ESE 7 9 4 5 1017.1 1015.5 0.0
16/07:30am 19.8 16.3 -1.3 24 9.2 ESE 7 9 4 5 1017.0 1015.4 0.0
16/07:00am 19.6 16.2 -0.9 25 9.0 ESE 7 9 4 5 1016.9 1015.3 0.0
16/06:30am 19.5 15.6 -1.6 24 9.1 ESE 9 9 5 5 1016.8 1015.1 0.0
16/06:00am 20.1 16.2 -1.7 23 9.4 ESE 9 11 5 6 1016.7 1015.0 0.0
16/05:30am 20.3 16.8 -1.5 23 9.5 ESE 7 11 4 6 1016.6 1014.9 0.0
16/05:00am 20.1 15.4 -1.7 23 9.4 ESE 13 15 7 8 1016.7 1015.0 0.0
16/04:30am 20.0 17.4 -1.7 23 9.4 ESE 2 7 1 4 1016.7 1015.0 0.0
16/04:00am 20.0 17.7 -2.3 22 9.5 CALM 0 0 0 0 1016.8 1015.1 0.0
16/03:30am 19.4 15.2 -3.5 21 9.5 ESE 9 13 5 7 1016.8 1015.1 0.0
16/03:00am 19.5 15.7 -3.4 21 9.5 ESE 7 13 4 7 1016.9 1015.3 0.0
16/02:30am 21.0 18.6 -3.5 19 10.3 CALM 0 0 0 0 1017.1 1015.5 0.0
16/02:00am 21.3 17.8 -3.2 19 10.4 ESE 6 9 3 5 1017.5 1015.9 0.0
16/01:30am 22.8 20.5 -2.7 18 11.1 CALM 0 0 0 0 1017.9 1016.3 0.0
16/01:00am 23.7 20.2 -2.8 17 11.6 ESE 6 9 3 5 1018.0 1016.4 0.0
16/12:30am 23.3 19.2 -3.1 17 11.4 ESE 9 9 5 5 1018.0 1016.4 0.0
16/12:00am 23.4 21.0 -3.0 17 11.5 CALM 0 0 0 0 1018.1 1016.5 0.0
 
Date/Time
CDT
Temp
°C
App
Temp
°C
Dew
Point
°C
Rel
Hum
%
Delta-T
°C
Wind Press
QNH
hPa
Press
MSL
hPa
Rain since
9am
mm
Dir  Spd
km/h
Gust
km/h
Spd
kts
Gust
kts
15/11:30pm 24.1 20.0 -3.3 16 11.9 ESE 9 11 5 6 1018.1 1016.5 0.0
15/11:00pm 24.6 20.9 -2.9 16 12.1 ESE 7 11 4 6 1018.3 1016.7 0.0
15/10:30pm 25.5 20.6 -3.0 15 12.6 ESE 13 15 7 8 1018.3 1016.7 0.0
15/10:00pm 26.0 20.7 -3.5 14 13.0 ESE 15 15 8 8 1018.2 1016.6 0.0
15/09:30pm 26.9 21.6 -3.8 13 13.5 ESE 15 15 8 8 1017.9 1016.3 0.0
15/09:00pm 28.2 22.9 -3.9 12 14.3 ESE 15 19 8 10 1017.6 1016.0 0.0
15/08:30pm 29.2 23.6 -3.1 12 14.7 ESE 17 20 9 11 1017.3 1015.7 0.0
15/08:00pm 30.4 24.2 -4.6 10 15.7 ESE 19 24 10 13 1017.0 1015.4 0.0
15/07:30pm 31.7 25.9 -5.0 9 16.5 SE 17 24 9 13 1016.6 1014.9 0.0
15/07:00pm 32.5 27.1 -4.4 9 16.8 SE 15 24 8 13 1016.3 1014.7 0.0
15/06:30pm 32.7 27.7 -4.3 9 16.9 ESE 13 20 7 11 1016.2 1014.6 0.0
15/06:00pm 32.9 27.7 -5.7 8 17.3 S 13 20 7 11 1016.3 1014.7 0.0
15/05:30pm 33.9 28.5 -4.9 8 17.7 SSE 15 28 8 15 1016.3 1014.7 0.0
15/05:00pm 33.4 29.1 -5.3 8 17.5 S 9 22 5 12 1016.3 1014.7 0.0
15/04:30pm 33.3 28.7 -3.8 9 17.2 SSE 11 30 6 16 1016.6 1014.9 0.0
15/04:00pm 33.0 27.3 -4.0 9 17.1 SE 17 24 9 13 1016.9 1015.3 0.0
15/03:30pm 33.0 29.0 -2.6 10 16.8 SSE 9 19 5 10 1017.4 1015.8 0.0
15/03:00pm 32.3 27.4 -3.2 10 16.5 WSW 13 24 7 13 1017.9 1016.3 0.0
15/02:30pm 31.9 26.6 -3.5 10 16.3 S 15 30 8 16 1018.5 1016.9 0.0
15/02:00pm 30.7 26.6 -3.1 11 15.6 SW 9 15 5 8 1018.9 1017.3 0.0
15/01:30pm 31.1 27.2 -1.6 12 15.5 SSE 9 15 5 8 1019.4 1017.8 0.0
15/01:00pm 30.0 25.2 -2.5 12 15.0 E 13 19 7 10 1020.0 1018.4 0.0
15/12:30pm 29.5 25.4 -2.9 12 14.8 S 9 19 5 10 1020.4 1018.9 0.0
15/12:00pm 29.5 25.3 -0.8 14 14.3 E 11 20 6 11 1020.9 1019.3 0.0
15/11:30am 28.7 24.2 -0.5 15 13.8 SE 13 26 7 14 1021.3 1019.7 0.0
15/11:00am 27.7 22.6 0.5 17 13.0 ESE 17 30 9 16 1021.6 1020.0 0.0
15/10:30am 27.6 22.1 0.4 17 13.0 ESE 19 37 10 20 1021.8 1020.2 0.0
15/10:00am 26.3 19.8 0.1 18 12.4 ESE 24 35 13 19 1021.7 1020.1 0.0
15/09:30am 24.7 20.3 0.3 20 11.4 ESE 13 22 7 12 1021.5 1019.9 0.0
15/09:00am 23.2 19.8 -0.3 21 10.7 E 7 11 4 6 1021.4 1019.8 0.0
15/08:30am 20.3 18.3 -0.3 25 9.2 CALM 0 0 0 0 1021.4 1019.8 0.0
15/08:00am 17.3 15.2 -0.9 29 7.8 CALM 0 7 0 4 1021.1 1019.5 0.0
15/07:30am 15.1 12.9 -1.9 31 7.0 CALM 0 0 0 0 1020.8 1019.2 0.0
15/07:00am 14.4 12.2 -1.6 33 6.6 CALM 0 0 0 0 1020.3 1018.8 0.0
15/06:30am 13.9 11.6 -2.1 33 6.5 CALM 0 9 0 5 1020.0 1018.4 0.0
15/06:00am 13.8 11.5 -2.6 32 6.5 CALM 0 6 0 3 1019.8 1018.2 0.0
15/05:30am 13.0 10.5 -3.7 31 6.4 CALM 0 0 0 0 1019.7 1018.1 0.0
15/05:00am 16.3 12.8 -1.7 29 7.5 E 7 9 4 5 1019.7 1018.1 0.0
15/04:30am 14.7 12.2 -3.6 28 7.2 CALM 0 0 0 0 1019.5 1017.9 0.0
15/04:00am 15.5 13.1 -2.9 28 7.4 CALM 0 0 0 0 1019.5 1017.9 0.0
15/03:30am 15.7 13.5 -1.8 30 7.2 CALM 0 0 0 0 1019.5 1017.9 0.0
15/03:00am 15.6 10.8 -2.8 28 7.4 ESE 13 15 7 8 1019.4 1017.8 0.0
15/02:30am 18.3 14.8 -1.0 27 8.3 ESE 7 9 4 5 1019.6 1018.0 0.0
15/02:00am 19.0 16.1 -1.4 25 8.8 ESE 4 6 2 3 1019.8 1018.2 0.0
15/01:30am 18.6 14.8 -0.7 27 8.4 ESE 9 11 5 6 1019.8 1018.2 0.0
15/01:00am 18.8 15.3 -1.1 26 8.6 ESE 7 9 4 5 1019.6 1018.0 0.0
15/12:30am 19.0 16.9 -0.9 26 8.7 CALM 0 0 0 0 1019.4 1017.8 0.0
15/12:00am 19.4 16.0 -1.7 24 9.1 ESE 6 7 3 4 1019.4 1017.8 0.0
 
Date/Time
CDT
Temp
°C
App
Temp
°C
Dew
Point
°C
Rel
Hum
%
Delta-T
°C
Wind Press
QNH
hPa
Press
MSL
hPa
Rain since
9am
mm
Dir  Spd
km/h
Gust
km/h
Spd
kts
Gust
kts
14/11:30pm 20.1 15.8 -1.7 23 9.4 ESE 11 11 6 6 1019.4 1017.8 0.0
14/11:00pm 21.1 16.5 -1.4 22 9.9 ESE 13 15 7 8 1019.4 1017.8 0.0
14/10:30pm 21.9 17.0 -0.8 22 10.1 ESE 15 15 8 8 1019.4 1017.8 0.0
14/10:00pm 22.7 18.1 -0.7 21 10.6 ESE 13 15 7 8 1019.3 1017.7 0.0
14/09:30pm 23.9 18.9 -1.1 19 11.3 ESE 15 19 8 10 1018.9 1017.3 0.0
14/09:00pm 25.1 20.1 -0.9 18 11.9 ESE 15 19 8 10 1018.7 1017.1 0.0
14/08:30pm 25.9 20.5 -1.0 17 12.4 ESE 17 24 9 13 1018.3 1016.7 0.0
14/08:00pm 27.0 22.8 -0.9 16 13.0 SE 11 17 6 9 1018.1 1016.5 0.0
14/07:30pm 28.1 23.5 -0.9 15 13.6 SSE 13 20 7 11 1017.9 1016.3 0.0
14/07:00pm 28.8 24.2 -1.3 14 14.1 SSE 13 20 7 11 1017.6 1016.0 0.0
14/06:30pm 29.2 25.0 -1.0 14 14.2 SSE 11 20 6 11 1017.4 1015.8 0.0
14/06:00pm 28.9 24.3 -1.2 14 14.1 SE 13 24 7 13 1017.4 1015.8 0.0
14/05:30pm 28.9 24.8 -0.3 15 13.9 SSE 11 20 6 11 1017.4 1015.8 0.0
14/05:00pm 29.1 24.9 -1.1 14 14.2 E 11 24 6 13 1017.5 1015.9 0.0
14/04:30pm 29.2 24.7 -0.1 15 14.0 SSE 13 24 7 13 1017.6 1016.0 0.0
14/04:00pm 28.5 23.3 0.3 16 13.6 S 17 37 9 20 1017.9 1016.3 0.0
14/03:30pm 28.2 23.4 0.0 16 13.4 SSW 15 24 8 13 1017.9 1016.3 0.0
14/03:00pm 27.1 22.3 0.0 17 12.8 S 15 26 8 14 1018.4 1016.8 0.0
14/02:30pm 26.6 22.5 -0.4 17 12.6 S 11 22 6 12 1018.7 1017.1 0.0
14/02:00pm 26.5 22.1 0.3 18 12.4 SSE 13 26 7 14 1019.2 1017.6 0.0
14/01:30pm 26.0 21.7 1.3 20 11.8 SSE 13 20 7 11 1019.5 1017.9 0.0
14/01:00pm 25.2 21.3 1.3 21 11.4 SE 11 24 6 13 1019.9 1018.3 0.0
14/12:30pm 24.4 19.5 1.9 23 10.8 ESE 17 24 9 13 1020.3 1018.8 0.0
14/12:00pm 24.0 19.8 1.6 23 10.6 SE 13 26 7 14 1020.7 1019.1 0.0
14/11:30am 23.4 17.9 1.7 24 10.3 ESE 20 30 11 16 1020.8 1019.2 0.0
14/11:00am 23.8 17.6 2.0 24 10.5 ESE 24 37 13 20 1020.7 1019.1 0.0
14/10:30am 22.3 14.9 1.9 26 9.6 ESE 30 35 16 19 1020.4 1018.9 0.0

Other Formats:

Comma delimited format used in spreadsheet applications
http://www.bom.gov.au/fwo/IDS60801/IDS60801.94674.axf

JavaScript Object Notation format (JSON) in row-major order
http://www.bom.gov.au/fwo/IDS60801/IDS60801.94674.json